createdAt,value
2023-04-07T00:04:10.866Z,94.70
2023-04-07T00:09:20.578Z,93.53
2023-04-07T00:14:26.456Z,92.33
2023-04-07T00:19:35.412Z,91.84
2023-04-07T00:24:44.155Z,92.82
2023-04-07T00:29:50.227Z,92.22
2023-04-07T00:34:56.512Z,91.29
2023-04-07T00:40:05.828Z,91.40
2023-04-07T00:45:14.933Z,93.08
2023-04-07T00:50:22.615Z,92.62
2023-04-07T00:55:33.213Z,91.94
2023-04-07T01:00:45.305Z,92.99
2023-04-07T01:05:59.023Z,92.81
2023-04-07T01:11:15.023Z,93.61
2023-04-07T01:16:30.428Z,94.54
2023-04-07T01:21:39.073Z,95.11
2023-04-07T01:26:49.286Z,94.84
2023-04-07T01:32:02.965Z,96.02
2023-04-07T01:37:11.654Z,96.91
2023-04-07T01:42:19.659Z,98.45
2023-04-07T01:47:32.035Z,98.30
2023-04-07T01:52:39.574Z,99.49
2023-04-07T01:57:45.521Z,98.47
2023-04-07T02:03:05.232Z,98.80
2023-04-07T02:08:17.028Z,99.20
2023-04-07T02:13:27.942Z,97.12
2023-04-07T02:18:38.433Z,96.96
2023-04-07T02:23:44.254Z,97.06
2023-04-07T02:28:51.146Z,97.46
2023-04-07T02:33:59.305Z,98.25
2023-04-07T02:39:06.570Z,97.69
2023-04-07T02:44:14.436Z,98.75
2023-04-07T02:49:24.877Z,99.40
2023-04-07T02:54:35.653Z,100.00
2023-04-07T02:59:42.127Z,100.00
2023-04-07T03:04:54.823Z,98.87
2023-04-07T03:10:05.053Z,98.75
2023-04-07T03:15:13.242Z,98.37
2023-04-07T03:20:28.747Z,98.90
2023-04-07T03:25:40.137Z,98.25
2023-04-07T03:30:46.821Z,97.08
2023-04-07T03:35:57.907Z,98.52
2023-04-07T03:41:04.506Z,98.48
2023-04-07T03:46:11.222Z,98.08
2023-04-07T03:51:21.515Z,98.51
2023-04-07T03:56:32.558Z,98.25
2023-04-07T04:01:39.212Z,97.40
2023-04-07T04:06:56.908Z,98.37
2023-04-07T04:12:23.278Z,99.61
2023-04-07T04:17:42.208Z,99.49
2023-04-07T04:22:57.175Z,99.10
2023-04-07T04:28:04.179Z,99.35
2023-04-07T04:33:10.609Z,100.00
2023-04-07T04:38:26.576Z,100.00
2023-04-07T04:43:38.691Z,99.31
2023-04-07T04:48:53.761Z,98.99
2023-04-07T04:54:04.362Z,98.69
2023-04-07T04:59:12.602Z,96.50
2023-04-07T05:04:31.515Z,96.14
2023-04-07T05:09:50.790Z,96.05
2023-04-07T05:14:57.987Z,95.28
2023-04-07T05:20:03.169Z,94.09
2023-04-07T05:25:22.403Z,96.29
2023-04-07T05:30:32.558Z,94.74
2023-04-07T05:35:42.645Z,93.90
2023-04-07T05:40:50.899Z,92.55
2023-04-07T05:46:13.009Z,91.12
2023-04-07T05:51:26.571Z,89.35
2023-04-07T05:56:36.349Z,85.70
2023-04-07T06:01:42.377Z,83.51
2023-04-07T06:06:52.775Z,80.26
2023-04-07T06:12:01.920Z,78.69
2023-04-07T06:17:09.325Z,72.97
2023-04-07T06:22:17.144Z,67.22
2023-04-07T06:27:25.155Z,68.24
2023-04-07T06:32:32.369Z,73.17
2023-04-07T06:37:37.734Z,71.02
2023-04-07T06:42:46.912Z,64.73
2023-04-07T06:48:05.119Z,58.57
2023-04-07T06:53:12.562Z,55.96
2023-04-07T06:58:23.339Z,52.72
2023-04-07T07:03:29.825Z,57.00
2023-04-07T07:08:37.029Z,60.02
2023-04-07T07:13:47.874Z,62.39
2023-04-07T07:19:00.748Z,59.31
2023-04-07T07:24:07.828Z,50.86
2023-04-07T07:29:16.299Z,50.16
2023-04-07T07:34:21.478Z,47.38
2023-04-07T07:39:29.292Z,51.66
2023-04-07T07:44:36.944Z,54.21
2023-04-07T07:49:46.573Z,54.43
2023-04-07T07:54:52.030Z,55.73
2023-04-07T08:00:00.757Z,56.38
2023-04-07T08:05:05.906Z,58.48
2023-04-07T08:10:16.977Z,58.54
2023-04-07T08:15:24.813Z,59.31
2023-04-07T08:20:29.917Z,59.78
2023-04-07T08:25:36.424Z,60.47
2023-04-07T08:30:44.099Z,60.90
2023-04-07T08:35:51.509Z,59.85
2023-04-07T08:41:03.961Z,60.26
2023-04-07T08:46:17.542Z,60.60
2023-04-07T08:51:30.445Z,60.37
2023-04-07T08:56:36.899Z,59.53
2023-04-07T09:01:45.081Z,58.87
2023-04-07T09:06:58.323Z,58.04
2023-04-07T09:12:03.523Z,57.54
2023-04-07T09:17:11.173Z,55.72
2023-04-07T09:22:36.995Z,53.80
2023-04-07T09:27:42.267Z,54.55
2023-04-07T09:32:50.377Z,54.96
2023-04-07T09:38:14.056Z,55.85
2023-04-07T09:43:21.934Z,54.21
2023-04-07T09:48:29.607Z,55.19
2023-04-07T09:53:47.030Z,53.55
2023-04-07T09:58:54.666Z,54.29
2023-04-07T10:04:05.170Z,53.34
2023-04-07T10:09:10.645Z,53.06
2023-04-07T10:14:18.463Z,53.70
2023-04-07T10:19:29.272Z,54.34
2023-04-07T10:24:48.101Z,53.82
2023-04-07T10:29:55.835Z,54.43
2023-04-07T10:35:04.101Z,53.95
2023-04-07T10:40:32.470Z,54.90
2023-04-07T10:45:57.251Z,54.33
2023-04-07T10:51:20.788Z,56.00
2023-04-07T10:56:27.236Z,54.82
2023-04-07T11:01:32.402Z,54.49
2023-04-07T11:06:54.270Z,54.96
2023-04-07T11:12:01.759Z,54.07
2023-04-07T11:17:09.195Z,54.52
2023-04-07T11:27:29.100Z,56.05
2023-04-07T11:32:35.268Z,56.71
2023-04-07T11:37:43.050Z,55.85
2023-04-07T11:42:48.100Z,55.96
2023-04-07T11:47:54.782Z,56.39
2023-04-07T11:53:03.700Z,54.50
2023-04-07T11:58:14.893Z,55.18
2023-04-07T12:03:20.269Z,54.98
2023-04-07T12:08:40.449Z,53.60
2023-04-07T12:13:47.430Z,54.77
2023-04-07T12:18:53.213Z,54.71
2023-04-07T12:24:00.871Z,53.85
2023-04-07T12:29:07.308Z,54.82
2023-04-07T12:34:12.685Z,56.73
2023-04-07T12:39:20.632Z,56.46
2023-04-07T12:44:27.307Z,56.07
2023-04-07T12:49:34.498Z,55.70
2023-04-07T12:54:48.214Z,57.90
2023-04-07T12:59:53.510Z,57.87
2023-04-07T13:05:01.680Z,58.91
2023-04-07T13:10:11.705Z,60.01
2023-04-07T13:15:16.932Z,59.83
2023-04-07T13:20:28.260Z,58.57
2023-04-07T13:25:36.998Z,57.45
2023-04-07T13:30:43.110Z,56.62
2023-04-07T13:35:48.295Z,56.68
2023-04-07T13:40:58.099Z,55.20
2023-04-07T13:46:07.801Z,55.51
2023-04-07T13:51:17.176Z,55.61
2023-04-07T13:56:25.196Z,56.05
2023-04-07T14:01:30.621Z,56.68
2023-04-07T14:06:37.467Z,57.01
2023-04-07T14:11:47.465Z,57.47
2023-04-07T14:16:54.232Z,56.67
2023-04-07T14:22:01.129Z,57.61
2023-04-07T14:27:08.755Z,57.69
2023-04-07T14:32:13.732Z,58.02
2023-04-07T14:37:23.172Z,58.89
2023-04-07T14:42:31.515Z,58.28
2023-04-07T14:47:39.015Z,59.02
2023-04-07T14:52:44.785Z,58.64
2023-04-07T14:57:56.805Z,59.21
2023-04-07T15:03:02.031Z,59.07
2023-04-07T15:08:07.169Z,59.77
2023-04-07T15:13:14.939Z,60.20
2023-04-07T15:18:20.239Z,60.48
2023-04-07T15:23:25.340Z,60.70
2023-04-07T15:28:33.009Z,65.44
2023-04-07T15:33:40.270Z,66.84
2023-04-07T15:38:45.460Z,67.16
2023-04-07T15:43:53.930Z,67.65
2023-04-07T15:48:58.960Z,68.41
2023-04-07T15:54:04.015Z,67.66
2023-04-07T15:59:13.137Z,67.86
2023-04-07T16:04:19.470Z,68.05
2023-04-07T16:09:24.563Z,67.22
2023-04-07T16:14:32.255Z,66.22
2023-04-07T16:19:37.302Z,65.47
2023-04-07T16:24:42.435Z,66.36
2023-04-07T16:29:50.223Z,68.57
2023-04-07T16:34:55.353Z,69.96
2023-04-07T16:40:01.008Z,70.47
2023-04-07T16:45:09.850Z,71.96
2023-04-07T16:50:16.010Z,74.50
2023-04-07T16:55:21.330Z,75.97
2023-04-07T17:00:29.056Z,76.63
2023-04-07T17:05:34.152Z,77.59
2023-04-07T17:10:39.235Z,78.17
2023-04-07T17:15:48.625Z,79.92
2023-04-07T17:20:53.706Z,80.78
2023-04-07T17:26:01.665Z,82.20
2023-04-07T17:31:11.767Z,83.97
2023-04-07T17:36:17.231Z,86.41
2023-04-07T17:41:23.600Z,87.67
2023-04-07T17:46:31.298Z,89.15
2023-04-07T17:51:36.506Z,90.68
2023-04-07T17:56:42.261Z,92.34
2023-04-07T18:01:52.734Z,93.86
2023-04-07T18:06:57.916Z,93.59
2023-04-07T18:12:04.728Z,95.40
2023-04-07T18:17:13.856Z,96.05
2023-04-07T18:22:19.242Z,97.01
2023-04-07T18:27:25.646Z,99.98
2023-04-07T18:32:33.431Z,100.00
2023-04-07T18:37:42.311Z,100.00
2023-04-07T18:42:49.106Z,100.00
2023-04-07T18:47:56.928Z,100.00
2023-04-07T18:53:02.486Z,100.00
2023-04-07T18:58:08.784Z,100.00
2023-04-07T19:03:19.256Z,100.00
2023-04-07T19:08:24.479Z,100.00
2023-04-07T19:13:32.015Z,100.00
2023-04-07T19:18:39.866Z,100.00
2023-04-07T19:23:47.877Z,100.00
2023-04-07T19:28:53.148Z,100.00
2023-04-07T19:34:01.604Z,100.00
2023-04-07T19:39:09.040Z,100.00
2023-04-07T19:44:14.198Z,100.00
2023-04-07T19:49:22.142Z,100.00
2023-04-07T19:54:27.714Z,100.00
2023-04-07T19:59:37.278Z,100.00
2023-04-07T20:04:46.178Z,100.00
2023-04-07T20:09:54.998Z,100.00
2023-04-07T20:15:00.026Z,100.00
2023-04-07T20:20:08.582Z,100.00
2023-04-07T20:25:14.146Z,100.00
2023-04-07T20:30:19.433Z,100.00
2023-04-07T20:35:27.834Z,100.00
2023-04-07T20:40:36.879Z,100.00
2023-04-07T20:45:42.047Z,100.00
2023-04-07T20:50:49.825Z,100.00
2023-04-07T20:55:54.986Z,100.00
2023-04-07T21:01:01.416Z,100.00
2023-04-07T21:06:11.669Z,100.00
2023-04-07T21:11:16.758Z,100.00
2023-04-07T21:16:22.164Z,100.00
2023-04-07T21:21:29.889Z,100.00
2023-04-07T21:26:35.002Z,100.00
2023-04-07T21:31:40.609Z,100.00
2023-04-07T21:36:50.256Z,100.00
2023-04-07T21:41:57.149Z,100.00
2023-04-07T21:47:04.153Z,100.00
2023-04-07T21:52:12.052Z,100.00
2023-04-07T21:57:18.519Z,100.00
2023-04-07T22:02:24.064Z,100.00
2023-04-07T22:07:31.803Z,100.00
2023-04-07T22:12:36.950Z,100.00
2023-04-07T22:17:43.929Z,100.00
2023-04-07T22:22:51.602Z,100.00
2023-04-07T22:27:57.087Z,100.00
2023-04-07T22:33:02.493Z,100.00
2023-04-07T22:38:10.636Z,100.00
2023-04-07T22:43:15.762Z,100.00
2023-04-07T22:48:21.305Z,100.00
2023-04-07T22:53:29.107Z,100.00
2023-04-07T22:58:34.374Z,100.00
2023-04-07T23:03:39.493Z,100.00
2023-04-07T23:08:48.858Z,100.00
2023-04-07T23:13:54.305Z,100.00
2023-04-07T23:18:59.504Z,100.00
2023-04-07T23:24:07.238Z,100.00
2023-04-07T23:29:12.396Z,100.00
2023-04-07T23:34:20.231Z,100.00
2023-04-07T23:39:28.058Z,100.00
2023-04-07T23:44:33.505Z,100.00
2023-04-07T23:49:38.767Z,100.00
2023-04-07T23:54:46.427Z,100.00
2023-04-07T23:59:51.536Z,100.00
